News.

Patrouille Sparflex - figure aérienne - Fly and Fun
Réserver un vol ?

Vous avez envie de vivre un moment unique ? Réserver un vol à sensation ou un vol d’initiation pour profiter d’un moment inoubliable a bord d’un L39 Albatros !

Patrouille Sparflex - figure aérienne - Fly and Fun
Nouveau site internet !

Bienvenue sur notre nouveau site internet !
Vous pouvez désormais commander votre vol à sensation ou d’initiation directement en ligne !

Social Wall.

Suivez-nous sur les réseaux sociaux comme Facebook et Instagram pour découvrir des actualités inédites !

Facebook.

This message is only visible to admins:
Unable to display Facebook posts

Error: (#10) This endpoint requires the 'manage_pages' or 'pages_read_engagement' permission or the 'Page Public Content Access' feature. Refer to https://developers.facebook.com/docs/apps/review/login-permissions#manage-pages and https://developers.facebook.com/docs/apps/review/feature#reference-PAGES_ACCESS for details.
Type: OAuthException
Code: 10
Click here to Troubleshoot.
Instagram.
This error message is only visible to WordPress admins
This endpoint has been retired

Error: No posts found.

Make sure this account has posts available on instagram.com.

METAR :

LFQA 210300Z AUTO 00000KT CAVOK 06/03 Q1015


vue en direct sur l'aérodrome
mentions légales politique de confidentialité
Cochet Concept
cx